createdAt,value
2023-04-25T00:00:16.713Z,100.00
2023-04-25T00:03:20.036Z,100.00
2023-04-25T00:06:39.818Z,100.00
2023-04-25T00:09:44.548Z,100.00
2023-04-25T00:12:48.099Z,100.00
2023-04-25T00:16:04.196Z,100.00
2023-04-25T00:19:07.958Z,100.00
2023-04-25T00:22:13.209Z,100.00
2023-04-25T00:25:19.855Z,100.00
2023-04-25T00:28:23.712Z,100.00
2023-04-25T00:31:28.356Z,100.00
2023-04-25T00:34:32.577Z,100.00
2023-04-25T00:37:36.310Z,100.00
2023-04-25T00:40:45.183Z,100.00
2023-04-25T00:43:53.942Z,100.00
2023-04-25T00:47:03.577Z,100.00
2023-04-25T00:50:09.736Z,100.00
2023-04-25T00:53:15.954Z,100.00
2023-04-25T00:56:18.990Z,100.00
2023-04-25T00:59:28.141Z,100.00
2023-04-25T01:02:38.174Z,100.00
2023-04-25T01:05:51.005Z,100.00
2023-04-25T01:09:03.452Z,100.00
2023-04-25T01:12:11.933Z,100.00
2023-04-25T01:15:15.352Z,100.00
2023-04-25T01:18:20.351Z,100.00
2023-04-25T01:21:24.540Z,100.00
2023-04-25T01:24:37.116Z,100.00
2023-04-25T01:27:46.866Z,100.00
2023-04-25T01:30:55.008Z,100.00
2023-04-25T01:34:03.290Z,100.00
2023-04-25T01:37:10.271Z,100.00
2023-04-25T01:40:17.761Z,100.00
2023-04-25T01:43:25.475Z,100.00
2023-04-25T01:46:38.111Z,100.00
2023-04-25T01:49:41.476Z,100.00
2023-04-25T01:52:55.124Z,100.00
2023-04-25T01:56:01.153Z,100.00
2023-04-25T01:59:08.293Z,100.00
2023-04-25T02:02:21.491Z,100.00
2023-04-25T02:05:25.737Z,100.00
2023-04-25T02:08:28.130Z,100.00
2023-04-25T02:11:31.764Z,100.00
2023-04-25T02:14:36.352Z,100.00
2023-04-25T02:17:39.365Z,100.00
2023-04-25T02:20:47.665Z,100.00
2023-04-25T02:23:55.769Z,100.00
2023-04-25T02:26:58.096Z,100.00
2023-04-25T02:30:06.368Z,100.00
2023-04-25T02:33:16.664Z,100.00
2023-04-25T02:36:26.590Z,100.00
2023-04-25T02:39:29.608Z,99.28
2023-04-25T02:42:34.272Z,98.60
2023-04-25T02:45:39.959Z,99.99
2023-04-25T02:48:58.211Z,99.55
2023-04-25T02:52:04.587Z,99.46
2023-04-25T02:55:07.973Z,98.88
2023-04-25T02:58:12.938Z,100.00
2023-04-25T03:01:18.507Z,99.14
2023-04-25T03:04:27.344Z,99.04
2023-04-25T03:07:33.255Z,98.93
2023-04-25T03:10:38.743Z,99.61
2023-04-25T03:13:55.448Z,99.12
2023-04-25T03:17:09.811Z,99.75
2023-04-25T03:20:13.491Z,98.98
2023-04-25T03:23:19.091Z,99.63
2023-04-25T03:26:30.961Z,98.99
2023-04-25T03:29:38.368Z,98.27
2023-04-25T03:32:50.169Z,98.38
2023-04-25T03:36:03.278Z,98.95
2023-04-25T03:39:07.889Z,98.40
2023-04-25T03:42:24.081Z,99.97
2023-04-25T03:45:34.274Z,100.00
2023-04-25T03:48:40.433Z,100.00
2023-04-25T03:51:46.993Z,100.00
2023-04-25T03:54:55.032Z,100.00
2023-04-25T03:58:04.782Z,100.00
2023-04-25T04:01:10.198Z,100.00
2023-04-25T04:04:15.584Z,100.00
2023-04-25T04:07:20.821Z,100.00
2023-04-25T04:10:28.199Z,100.00
2023-04-25T04:13:32.828Z,100.00
2023-04-25T04:16:46.493Z,100.00
2023-04-25T04:19:51.393Z,100.00
2023-04-25T04:23:02.113Z,99.87
2023-04-25T04:26:07.699Z,100.00
2023-04-25T04:29:12.419Z,100.00
2023-04-25T04:32:31.154Z,100.00
2023-04-25T04:35:34.613Z,100.00
2023-04-25T04:38:41.916Z,100.00
2023-04-25T04:41:47.372Z,100.00
2023-04-25T04:44:55.621Z,100.00
2023-04-25T04:48:01.255Z,100.00
2023-04-25T04:51:07.801Z,100.00
2023-04-25T04:54:13.556Z,100.00
2023-04-25T04:57:21.698Z,100.00
2023-04-25T05:00:25.788Z,100.00
2023-04-25T05:03:30.870Z,100.00
2023-04-25T05:06:34.242Z,100.00
2023-04-25T05:09:38.877Z,100.00
2023-04-25T05:12:42.004Z,100.00
2023-04-25T05:15:45.110Z,100.00
2023-04-25T05:19:01.801Z,100.00
2023-04-25T05:22:05.213Z,100.00
2023-04-25T05:25:15.760Z,100.00
2023-04-25T05:28:19.454Z,100.00
2023-04-25T05:31:22.776Z,100.00
2023-04-25T05:34:26.521Z,100.00
2023-04-25T05:37:32.124Z,100.00
2023-04-25T05:40:36.009Z,100.00
2023-04-25T05:43:38.074Z,100.00
2023-04-25T05:46:40.181Z,100.00
2023-04-25T05:49:42.084Z,100.00
2023-04-25T05:52:44.227Z,100.00
2023-04-25T05:55:46.076Z,100.00
2023-04-25T05:58:48.235Z,100.00
2023-04-25T06:01:50.531Z,100.00
2023-04-25T06:04:52.962Z,100.00
2023-04-25T06:07:55.745Z,100.00
2023-04-25T06:10:57.857Z,100.00
2023-04-25T06:13:59.784Z,100.00
2023-04-25T06:17:07.517Z,100.00
2023-04-25T06:20:10.002Z,100.00
2023-04-25T06:23:11.906Z,100.00
2023-04-25T06:26:13.915Z,100.00
2023-04-25T06:29:15.963Z,100.00
2023-04-25T06:32:19.283Z,100.00
2023-04-25T06:35:22.281Z,100.00
2023-04-25T06:38:24.422Z,100.00
2023-04-25T06:41:26.280Z,100.00
2023-04-25T06:44:30.495Z,100.00
2023-04-25T06:47:32.925Z,100.00
2023-04-25T06:50:34.949Z,100.00
2023-04-25T06:53:37.275Z,100.00
2023-04-25T06:56:43.478Z,100.00
2023-04-25T06:59:46.007Z,100.00
2023-04-25T07:02:49.406Z,100.00
2023-04-25T07:05:51.860Z,100.00
2023-04-25T07:08:54.060Z,100.00
2023-04-25T07:11:56.469Z,100.00
2023-04-25T07:14:58.822Z,100.00
2023-04-25T07:18:01.262Z,100.00
2023-04-25T07:21:03.475Z,100.00
2023-04-25T07:24:06.737Z,100.00
2023-04-25T07:27:10.542Z,100.00
2023-04-25T07:30:13.774Z,100.00
2023-04-25T07:33:21.697Z,100.00
2023-04-25T07:36:24.533Z,100.00
2023-04-25T07:39:28.190Z,100.00
2023-04-25T07:42:30.247Z,100.00
2023-04-25T07:45:32.545Z,100.00
2023-04-25T07:48:36.440Z,100.00
2023-04-25T07:51:40.590Z,100.00
2023-04-25T07:54:45.109Z,100.00
2023-04-25T07:57:47.992Z,100.00
2023-04-25T08:00:52.168Z,100.00
2023-04-25T08:03:58.098Z,97.61
2023-04-25T08:07:09.200Z,100.00
2023-04-25T08:10:14.888Z,95.66
2023-04-25T08:13:17.430Z,95.65
2023-04-25T08:16:19.834Z,98.73
2023-04-25T08:19:25.927Z,93.30
2023-04-25T08:22:34.844Z,92.42
2023-04-25T08:25:40.488Z,91.08
2023-04-25T08:28:43.776Z,91.80
2023-04-25T08:31:46.882Z,91.07
2023-04-25T08:34:49.815Z,94.94
2023-04-25T08:37:54.836Z,89.57
2023-04-25T08:41:10.511Z,88.60
2023-04-25T08:44:23.629Z,89.14
2023-04-25T08:47:32.467Z,87.67
2023-04-25T08:50:41.721Z,85.26
2023-04-25T08:53:57.936Z,84.21
2023-04-25T08:57:22.269Z,85.42
2023-04-25T09:00:25.703Z,81.48
2023-04-25T09:03:29.602Z,82.35
2023-04-25T09:06:42.264Z,79.73
2023-04-25T09:09:45.260Z,81.65
2023-04-25T09:13:15.775Z,83.33
2023-04-25T09:16:37.084Z,83.21
2023-04-25T09:19:42.621Z,80.17
2023-04-25T09:22:50.024Z,82.75
2023-04-25T09:25:56.184Z,83.09
2023-04-25T09:29:23.732Z,80.41
2023-04-25T09:32:30.998Z,79.51
2023-04-25T09:35:40.797Z,79.79
2023-04-25T09:38:45.732Z,81.46
2023-04-25T09:41:55.273Z,77.75
2023-04-25T09:44:59.730Z,77.47
2023-04-25T09:48:09.179Z,77.94
2023-04-25T09:51:15.092Z,77.28
2023-04-25T09:54:22.901Z,76.89
2023-04-25T09:57:27.246Z,77.32
2023-04-25T10:00:30.199Z,73.13
2023-04-25T10:03:36.093Z,73.25
2023-04-25T10:06:43.597Z,72.38
2023-04-25T10:09:53.537Z,74.04
2023-04-25T10:13:02.213Z,75.88
2023-04-25T10:16:07.882Z,74.13
2023-04-25T10:19:16.618Z,73.33
2023-04-25T10:22:22.510Z,74.78
2023-04-25T10:25:33.078Z,72.89
2023-04-25T10:29:00.661Z,74.55
2023-04-25T10:32:06.475Z,75.54
2023-04-25T10:35:21.093Z,72.44
2023-04-25T10:38:23.611Z,71.19
2023-04-25T10:41:30.753Z,70.90
2023-04-25T10:44:40.629Z,70.70
2023-04-25T10:47:47.375Z,71.78
2023-04-25T10:51:09.121Z,65.03
2023-04-25T10:54:13.312Z,62.64
2023-04-25T10:57:38.235Z,66.12
2023-04-25T11:00:56.829Z,65.01
2023-04-25T11:04:04.499Z,64.83
2023-04-25T11:07:28.892Z,61.72
2023-04-25T11:10:32.976Z,64.03
2023-04-25T11:13:35.281Z,61.18
2023-04-25T11:16:42.463Z,60.37
2023-04-25T11:19:45.156Z,59.69
2023-04-25T11:23:17.591Z,56.87
2023-04-25T11:26:23.689Z,57.35
2023-04-25T11:29:34.723Z,57.42
2023-04-25T11:32:38.547Z,59.78
2023-04-25T11:35:44.193Z,61.66
2023-04-25T11:38:54.020Z,55.58
2023-04-25T11:41:57.234Z,54.77
2023-04-25T11:45:00.082Z,57.63
2023-04-25T11:48:05.494Z,57.09
2023-04-25T11:51:11.376Z,58.77
2023-04-25T11:54:14.127Z,57.73
2023-04-25T11:57:22.797Z,58.88
2023-04-25T12:00:26.009Z,58.47
2023-04-25T12:03:34.384Z,58.47
2023-04-25T12:06:41.481Z,57.12
2023-04-25T12:09:46.630Z,58.46
2023-04-25T12:12:52.519Z,58.40
2023-04-25T12:16:00.277Z,55.70
2023-04-25T12:19:06.068Z,54.66
2023-04-25T12:22:30.764Z,53.71
2023-04-25T12:25:48.264Z,50.63
2023-04-25T12:28:54.863Z,48.88
2023-04-25T12:32:04.441Z,50.16
2023-04-25T12:35:08.914Z,51.58
2023-04-25T12:38:12.062Z,51.39
2023-04-25T12:41:15.836Z,50.86
2023-04-25T12:44:21.823Z,49.10
2023-04-25T12:47:24.405Z,49.50
2023-04-25T12:50:32.512Z,47.80
2023-04-25T12:53:39.030Z,48.56
2023-04-25T12:56:42.297Z,45.69
2023-04-25T12:59:46.774Z,46.67
2023-04-25T13:02:53.974Z,46.58
2023-04-25T13:06:02.602Z,47.33
2023-04-25T13:09:05.931Z,47.91
2023-04-25T13:12:10.961Z,48.10
2023-04-25T13:15:14.689Z,50.12
2023-04-25T13:18:20.989Z,47.31
2023-04-25T13:21:23.325Z,46.24
2023-04-25T13:24:31.730Z,44.43
2023-04-25T13:27:35.497Z,43.74
2023-04-25T13:30:38.614Z,44.67
2023-04-25T13:33:41.711Z,45.04
2023-04-25T13:36:50.040Z,45.00
2023-04-25T13:39:53.257Z,45.30
2023-04-25T13:42:59.958Z,44.39
2023-04-25T13:46:46.917Z,45.55
2023-04-25T13:49:53.839Z,43.32
2023-04-25T13:52:58.654Z,44.09
2023-04-25T13:56:04.087Z,46.16
2023-04-25T13:59:07.005Z,44.13
2023-04-25T14:02:14.922Z,43.99
2023-04-25T14:05:17.553Z,43.76
2023-04-25T14:08:20.346Z,43.84
2023-04-25T14:11:23.039Z,43.21
2023-04-25T14:14:29.631Z,42.49
2023-04-25T14:17:33.766Z,43.41
2023-04-25T14:20:42.333Z,42.70
2023-04-25T14:23:45.258Z,45.33
2023-04-25T14:26:48.072Z,42.77
2023-04-25T14:29:50.918Z,42.79
2023-04-25T14:32:53.817Z,41.48
2023-04-25T14:35:58.773Z,41.43
2023-04-25T14:39:03.889Z,41.36
2023-04-25T14:42:07.790Z,42.72
2023-04-25T14:45:15.379Z,41.14
2023-04-25T14:48:28.203Z,40.79
2023-04-25T14:51:32.755Z,40.47
2023-04-25T14:54:37.053Z,39.93
2023-04-25T14:57:41.910Z,40.42
2023-04-25T15:00:52.395Z,41.13
2023-04-25T15:03:57.506Z,43.05
2023-04-25T15:07:00.567Z,41.66
2023-04-25T15:10:08.380Z,41.93
2023-04-25T15:13:14.085Z,41.72
2023-04-25T15:16:18.411Z,42.37
2023-04-25T15:19:25.219Z,41.93
2023-04-25T15:22:32.357Z,42.38
2023-04-25T15:25:37.737Z,42.14
2023-04-25T15:28:40.048Z,43.04
2023-04-25T15:31:44.687Z,43.77
2023-04-25T15:34:47.554Z,45.06
2023-04-25T15:37:51.936Z,45.09
2023-04-25T15:40:55.347Z,46.79
2023-04-25T15:44:00.480Z,46.84
2023-04-25T15:47:03.682Z,46.49
2023-04-25T15:50:10.773Z,47.60
2023-04-25T15:53:13.858Z,48.41
2023-04-25T15:56:21.163Z,49.85
2023-04-25T15:59:25.794Z,52.18
2023-04-25T16:02:33.991Z,55.67
2023-04-25T16:05:38.719Z,57.06
2023-04-25T16:08:43.262Z,60.17
2023-04-25T16:11:47.270Z,61.22
2023-04-25T16:14:49.767Z,63.06
2023-04-25T16:17:53.270Z,64.33
2023-04-25T16:20:57.170Z,63.30
2023-04-25T16:23:59.876Z,63.30
2023-04-25T16:27:15.648Z,63.96
2023-04-25T16:30:18.786Z,63.71
2023-04-25T16:33:23.700Z,63.38
2023-04-25T16:36:27.704Z,62.43
2023-04-25T16:39:36.302Z,62.95
2023-04-25T16:42:50.572Z,61.00
2023-04-25T16:45:54.068Z,62.62
2023-04-25T16:48:57.174Z,63.20
2023-04-25T16:51:59.521Z,62.28
2023-04-25T16:55:04.066Z,62.71
2023-04-25T16:58:10.923Z,63.64
2023-04-25T17:01:18.077Z,63.70
2023-04-25T17:04:23.167Z,63.93
2023-04-25T17:07:25.958Z,63.40
2023-04-25T17:10:28.934Z,64.44
2023-04-25T17:13:33.692Z,67.01
2023-04-25T17:16:36.989Z,66.80
2023-04-25T17:19:39.318Z,66.93
2023-04-25T17:22:42.267Z,68.14
2023-04-25T17:25:45.149Z,68.78
2023-04-25T17:28:49.803Z,67.51
2023-04-25T17:31:54.636Z,67.32
2023-04-25T17:34:59.371Z,67.84
2023-04-25T17:38:05.305Z,72.74
2023-04-25T17:41:08.608Z,69.62
2023-04-25T17:44:13.748Z,70.64
2023-04-25T17:47:17.283Z,73.91
2023-04-25T17:50:21.196Z,72.98
2023-04-25T17:53:29.926Z,72.03
2023-04-25T17:56:39.527Z,72.49
2023-04-25T17:59:42.607Z,74.18
2023-04-25T18:02:45.778Z,73.57
2023-04-25T18:05:49.243Z,74.04
2023-04-25T18:08:51.804Z,75.21
2023-04-25T18:11:55.641Z,74.97
2023-04-25T18:14:58.332Z,76.14
2023-04-25T18:18:04.302Z,75.72
2023-04-25T18:21:09.467Z,77.17
2023-04-25T18:24:22.859Z,77.04
2023-04-25T18:27:29.988Z,77.45
2023-04-25T18:30:33.954Z,80.20
2023-04-25T18:33:37.367Z,80.04
2023-04-25T18:36:41.518Z,80.42
2023-04-25T18:39:45.392Z,79.21
2023-04-25T18:42:49.931Z,78.58
2023-04-25T18:45:56.936Z,78.56
2023-04-25T18:49:02.150Z,79.55
2023-04-25T18:52:07.205Z,78.46
2023-04-25T18:55:12.399Z,78.67
2023-04-25T18:58:15.818Z,79.14
2023-04-25T19:01:24.580Z,78.91
2023-04-25T19:04:30.498Z,78.40
2023-04-25T19:07:34.724Z,78.55
2023-04-25T19:10:42.864Z,79.50
2023-04-25T19:13:49.652Z,80.03
2023-04-25T19:16:52.674Z,79.10
2023-04-25T19:20:00.535Z,78.93
2023-04-25T19:23:08.230Z,80.23
2023-04-25T19:26:11.144Z,79.83
2023-04-25T19:29:19.410Z,79.79
2023-04-25T19:32:28.235Z,80.10
2023-04-25T19:35:37.191Z,79.46
2023-04-25T19:38:39.519Z,80.32
2023-04-25T19:41:43.887Z,80.35
2023-04-25T19:44:51.561Z,80.73
2023-04-25T19:47:56.175Z,80.83
2023-04-25T19:50:58.949Z,81.48
2023-04-25T19:54:04.283Z,81.62
2023-04-25T19:57:08.619Z,83.06
2023-04-25T20:00:20.000Z,83.09
2023-04-25T20:03:29.225Z,83.23
2023-04-25T20:06:33.445Z,81.65
2023-04-25T20:09:37.092Z,80.98
2023-04-25T20:12:44.464Z,81.31
2023-04-25T20:15:53.521Z,80.66
2023-04-25T20:18:58.112Z,80.73
2023-04-25T20:22:08.342Z,81.33
2023-04-25T20:25:12.666Z,81.87
2023-04-25T20:28:16.436Z,82.32
2023-04-25T20:31:27.601Z,82.31
2023-04-25T20:34:35.054Z,82.42
2023-04-25T20:37:47.979Z,82.56
2023-04-25T20:40:53.666Z,83.70
2023-04-25T20:43:57.434Z,82.81
2023-04-25T20:47:03.665Z,82.73
2023-04-25T20:50:09.556Z,84.56
2023-04-25T20:53:19.321Z,83.83
2023-04-25T20:56:22.428Z,82.71
2023-04-25T20:59:26.347Z,82.41
2023-04-25T21:02:32.160Z,82.27
2023-04-25T21:05:38.363Z,83.64
2023-04-25T21:08:42.060Z,82.18
2023-04-25T21:11:45.286Z,83.14
2023-04-25T21:14:51.566Z,82.88
2023-04-25T21:17:56.146Z,83.58
2023-04-25T21:21:14.821Z,85.77
2023-04-25T21:24:20.884Z,84.73
2023-04-25T21:27:26.468Z,85.23
2023-04-25T21:30:31.064Z,86.02
2023-04-25T21:33:39.288Z,86.60
2023-04-25T21:36:45.347Z,85.67
2023-04-25T21:39:48.445Z,87.05
2023-04-25T21:42:56.046Z,87.42
2023-04-25T21:46:21.766Z,88.14
2023-04-25T21:49:30.288Z,88.57
2023-04-25T21:52:36.495Z,89.17
2023-04-25T21:55:41.393Z,89.97
2023-04-25T21:58:53.396Z,91.35
2023-04-25T22:01:56.729Z,92.99
2023-04-25T22:04:58.960Z,93.01
2023-04-25T22:08:04.715Z,93.48
2023-04-25T22:11:16.105Z,93.90
2023-04-25T22:14:28.788Z,93.50
2023-04-25T22:17:35.487Z,93.12
2023-04-25T22:20:44.335Z,94.34
2023-04-25T22:23:50.959Z,93.04
2023-04-25T22:26:55.488Z,93.04
2023-04-25T22:30:03.952Z,92.66
2023-04-25T22:33:07.230Z,93.23
2023-04-25T22:36:19.162Z,92.98
2023-04-25T22:39:28.241Z,93.58
2023-04-25T22:42:30.881Z,93.37
2023-04-25T22:45:43.995Z,93.20
2023-04-25T22:48:51.302Z,93.43
2023-04-25T22:51:57.180Z,93.81
2023-04-25T22:54:59.967Z,93.71
2023-04-25T22:58:04.993Z,93.84
2023-04-25T23:01:18.389Z,94.83
2023-04-25T23:04:24.851Z,94.47
2023-04-25T23:07:43.674Z,95.66
2023-04-25T23:10:52.846Z,95.72
2023-04-25T23:13:55.850Z,95.03
2023-04-25T23:17:09.353Z,96.17
2023-04-25T23:20:17.346Z,95.54
2023-04-25T23:23:29.846Z,95.56
2023-04-25T23:26:44.854Z,94.41
2023-04-25T23:30:00.205Z,93.08
2023-04-25T23:33:07.930Z,92.62
2023-04-25T23:36:29.133Z,91.83
2023-04-25T23:39:42.555Z,91.65
2023-04-25T23:42:52.455Z,91.02
2023-04-25T23:46:11.502Z,90.58
2023-04-25T23:49:19.139Z,92.08
2023-04-25T23:52:25.234Z,90.37
2023-04-25T23:55:34.962Z,90.81
2023-04-25T23:58:53.803Z,91.07
